Madrid, Nebraska
Current Conditions -  °F | °C
As of 10:55 AM on Saturday 22 Nov 2014 (Local Time) from KOGA Reporting Station
Scattered Clouds Scattered Clouds  
Wind Chill: 54°   Ceiling: Unl
Heat Index: 54°   Visibility: 10mi
Dew Point: 28°   Wind: 9mph
Humidity: 37%   Direction: 240°WSW
Pressure: 29.67"   Gusts: NA
Location:  40.85°N, 101.54°W
Report Text: KOGA 221755Z AUTO 24008KT 10SM SCT120 12/M02 A2967 RMK AO2 T01211024 10121 21085
Loading
Personal Weather Stations






























Interactive Weather Map New forecast layout! Learn more

10-Day Weather Forecast

Advertisements
Track Severe Weather on mobile